Time;durP1;ratioP1;P1;durP2;ratioP2;P2;SDS_P1;SDS_P2;PMS_P1;PMS_P2;Temp;Humidity;BMP_temperature;BMP_pressure;BME280_temperature;BME280_humidity;BME280_pressure;Samples;Min_cycle;Max_cycle;Signal;HPM_P1;HPM_P2
2023/10/28 00:01:15;;;;;;;0.80;0.70;;;;;;;;;;6170784;23;20383;-88
2023/10/28 00:03:41;;;;;;;0.60;0.57;;;;;;;;;;6169142;23;20423;-88
2023/10/28 00:06:07;;;;;;;1.00;0.60;;;;;;;;;;6169401;23;20426;-88
2023/10/28 00:08:34;;;;;;;1.27;0.70;;;;;;;;;;6167307;23;20367;-87
2023/10/28 00:11:00;;;;;;;0.90;0.70;;;;;;;;;;6173226;23;20384;-88
2023/10/28 00:13:26;;;;;;;0.80;0.60;;;;;;;;;;6168004;23;20398;-88
2023/10/28 00:15:52;;;;;;;0.60;0.50;;;;;;;;;;6168702;23;20522;-88
2023/10/28 00:18:18;;;;;;;0.70;0.60;;;;;;;;;;6168709;23;20399;-87
2023/10/28 00:20:45;;;;;;;0.93;0.80;;;;;;;;;;6194582;23;20398;-89
2023/10/28 00:23:13;;;;;;;0.60;0.50;;;;;;;;;;6169844;23;20380;-87
2023/10/28 00:25:39;;;;;;;0.87;0.60;;;;;;;;;;6170335;23;20468;-88
2023/10/28 00:28:05;;;;;;;2.47;1.13;;;;;;;;;;6180850;23;20786;-89
2023/10/28 00:30:34;;;;;;;0.70;0.60;;;;;;;;;;6221158;23;20384;-87
2023/10/28 00:33:03;;;;;;;0.70;0.60;;;;;;;;;;6218721;23;20411;-88
2023/10/28 00:35:29;;;;;;;1.20;0.63;;;;;;;;;;6220830;23;20383;-88
2023/10/28 00:37:55;;;;;;;2.47;0.73;;;;;;;;;;6219880;23;20406;-88
2023/10/28 00:40:24;;;;;;;0.80;0.60;;;;;;;;;;6221469;23;20442;-89
2023/10/28 00:42:50;;;;;;;1.37;0.80;;;;;;;;;;6218802;23;20390;-88
2023/10/28 00:45:16;;;;;;;0.90;0.90;;;;;;;;;;6221539;23;20438;-88
2023/10/28 00:47:43;;;;;;;0.80;0.80;;;;;;;;;;6217512;23;20854;-88
2023/10/28 00:50:10;;;;;;;1.00;0.70;;;;;;;;;;6219914;23;20385;-88
2023/10/28 00:52:39;;;;;;;1.80;0.70;;;;;;;;;;6220904;23;21016;-88
2023/10/28 00:55:09;;;;;;;0.80;0.50;;;;;;;;;;6219618;23;20423;-88
2023/10/28 00:57:35;;;;;;;1.57;0.70;;;;;;;;;;6220302;23;20394;-88
2023/10/28 01:00:01;;;;;;;0.60;0.50;;;;;;;;;;6216129;23;20380;-88
2023/10/28 01:02:28;;;;;;;0.70;0.60;;;;;;;;;;6221104;23;20391;-88
2023/10/28 01:04:54;;;;;;;1.57;0.80;;;;;;;;;;6219211;23;20477;-87
2023/10/28 01:07:20;;;;;;;0.83;0.77;;;;;;;;;;6219148;23;20375;-88
2023/10/28 01:09:48;;;;;;;0.97;0.63;;;;;;;;;;6218079;23;20379;-88
2023/10/28 01:12:15;;;;;;;0.70;0.50;;;;;;;;;;6221425;23;20411;-88
2023/10/28 01:14:41;;;;;;;0.70;0.70;;;;;;;;;;6217834;23;20385;-87
2023/10/28 01:17:08;;;;;;;1.20;0.90;;;;;;;;;;6220504;23;20387;-88
2023/10/28 01:19:34;;;;;;;0.90;0.73;;;;;;;;;;6216944;23;20383;-88
2023/10/28 01:22:00;;;;;;;1.10;0.77;;;;;;;;;;6219931;23;20383;-88
2023/10/28 01:24:28;;;;;;;1.43;0.53;;;;;;;;;;6218045;23;20427;-88
2023/10/28 01:26:54;;;;;;;0.90;0.70;;;;;;;;;;6219656;23;20383;-87
2023/10/28 01:29:22;;;;;;;1.60;0.80;;;;;;;;;;6166575;23;20390;-88
2023/10/28 01:31:48;;;;;;;0.70;0.70;;;;;;;;;;6167585;23;20390;-88
2023/10/28 01:34:14;;;;;;;1.00;0.90;;;;;;;;;;6167808;23;20466;-88
2023/10/28 01:36:42;;;;;;;3.43;0.90;;;;;;;;;;6170133;23;20877;-87
2023/10/28 01:39:08;;;;;;;1.03;0.93;;;;;;;;;;6192938;23;20382;-87
2023/10/28 01:41:34;;;;;;;1.07;0.73;;;;;;;;;;6167935;23;20381;-86
2023/10/28 01:44:00;;;;;;;0.80;0.67;;;;;;;;;;6167634;23;20411;-85
2023/10/28 01:46:29;;;;;;;1.80;0.73;;;;;;;;;;6195600;23;20484;-87
2023/10/28 01:48:55;;;;;;;1.27;0.77;;;;;;;;;;6166078;23;20371;-87
2023/10/28 01:51:21;;;;;;;4.30;0.80;;;;;;;;;;6168498;23;20389;-88
2023/10/28 01:53:47;;;;;;;3.10;2.70;;;;;;;;;;6167487;23;20383;-87
2023/10/28 01:56:13;;;;;;;1.13;0.60;;;;;;;;;;6169595;23;20893;-87
2023/10/28 01:58:39;;;;;;;0.93;0.70;;;;;;;;;;6166915;23;20892;-87
2023/10/28 02:01:05;;;;;;;0.60;0.50;;;;;;;;;;6217861;23;20362;-87
2023/10/28 02:03:31;;;;;;;0.80;0.63;;;;;;;;;;6166511;23;20443;-87
2023/10/28 02:05:57;;;;;;;0.80;0.67;;;;;;;;;;6167429;23;20458;-87
2023/10/28 02:08:23;;;;;;;1.13;0.67;;;;;;;;;;6166205;23;20553;-88
2023/10/28 02:10:49;;;;;;;0.70;0.70;;;;;;;;;;6168976;23;20379;-87
2023/10/28 02:13:14;;;;;;;1.10;0.67;;;;;;;;;;6192564;23;20457;-87
2023/10/28 02:15:42;;;;;;;1.00;0.90;;;;;;;;;;6169027;23;20382;-87
2023/10/28 02:18:09;;;;;;;0.90;0.60;;;;;;;;;;6167247;23;20393;-88
2023/10/28 02:20:36;;;;;;;1.10;0.80;;;;;;;;;;6176743;23;20901;-88
2023/10/28 02:23:02;;;;;;;1.43;0.87;;;;;;;;;;6167409;23;20792;-88
2023/10/28 02:25:28;;;;;;;1.17;0.80;;;;;;;;;;6168891;23;20415;-88
2023/10/28 02:27:54;;;;;;;0.80;0.80;;;;;;;;;;6175538;23;20399;-87
2023/10/28 02:30:20;;;;;;;3.00;0.70;;;;;;;;;;6219219;23;20365;-86
2023/10/28 02:32:46;;;;;;;0.90;0.80;;;;;;;;;;6215787;23;20367;-87
2023/10/28 02:35:13;;;;;;;4.47;0.70;;;;;;;;;;6218583;23;20420;-85
2023/10/28 02:37:39;;;;;;;1.97;0.93;;;;;;;;;;6218006;23;20524;-88
2023/10/28 02:40:06;;;;;;;2.30;0.70;;;;;;;;;;6219359;23;20370;-88
2023/10/28 02:42:32;;;;;;;0.90;0.60;;;;;;;;;;6218362;23;20379;-88
2023/10/28 02:44:58;;;;;;;1.00;0.90;;;;;;;;;;6220429;23;20480;-87
2023/10/28 02:47:24;;;;;;;1.53;0.80;;;;;;;;;;6218119;23;20448;-87
2023/10/28 02:49:51;;;;;;;0.80;0.50;;;;;;;;;;6221938;23;20424;-87
2023/10/28 02:52:17;;;;;;;5.90;0.97;;;;;;;;;;6218964;23;20438;-87
2023/10/28 02:54:43;;;;;;;0.90;0.80;;;;;;;;;;6220002;23;20855;-87
2023/10/28 02:57:09;;;;;;;3.60;1.47;;;;;;;;;;6217317;23;20398;-87
2023/10/28 02:59:35;;;;;;;1.47;1.23;;;;;;;;;;6219026;23;20387;-88
2023/10/28 03:02:01;;;;;;;1.90;1.20;;;;;;;;;;6218266;23;20393;-87
2023/10/28 03:04:27;;;;;;;2.13;1.93;;;;;;;;;;6220154;23;20422;-86
2023/10/28 03:06:53;;;;;;;2.40;1.40;;;;;;;;;;6218196;23;20386;-87
2023/10/28 03:09:19;;;;;;;0.97;0.90;;;;;;;;;;6220128;23;20371;-87
2023/10/28 03:11:45;;;;;;;1.00;0.80;;;;;;;;;;6219001;23;20375;-87
2023/10/28 03:14:11;;;;;;;1.67;0.70;;;;;;;;;;6218340;23;20375;-88
2023/10/28 03:16:38;;;;;;;1.10;1.00;;;;;;;;;;6217213;23;20638;-88
2023/10/28 03:19:04;;;;;;;1.43;0.90;;;;;;;;;;6219606;23;20398;-87
2023/10/28 03:21:30;;;;;;;3.37;1.10;;;;;;;;;;6217039;23;20374;-88
2023/10/28 03:23:56;;;;;;;3.23;1.60;;;;;;;;;;6223142;23;20391;-87
2023/10/28 03:26:22;;;;;;;4.07;1.87;;;;;;;;;;6217961;23;21121;-88
2023/10/28 03:28:49;;;;;;;3.23;0.80;;;;;;;;;;6217363;23;20441;-87
2023/10/28 03:31:15;;;;;;;2.70;1.07;;;;;;;;;;6217508;23;20384;-88
2023/10/28 03:33:41;;;;;;;3.53;1.20;;;;;;;;;;6217501;23;20433;-88
2023/10/28 03:36:10;;;;;;;4.10;1.30;;;;;;;;;;6217925;23;20383;-88
2023/10/28 03:38:37;;;;;;;2.30;1.10;;;;;;;;;;6218785;23;20391;-88
2023/10/28 03:41:07;;;;;;;1.80;0.67;;;;;;;;;;6218847;23;20377;-87
2023/10/28 03:43:33;;;;;;;1.33;0.80;;;;;;;;;;6217237;23;20375;-87
2023/10/28 03:45:59;;;;;;;1.10;1.00;;;;;;;;;;6218204;23;20419;-87
2023/10/28 03:48:25;;;;;;;2.20;1.20;;;;;;;;;;6218960;23;20376;-88
2023/10/28 03:51:17;;;;;;;3.50;1.37;;;;;;;;;;6218746;23;20375;-87
2023/10/28 03:53:43;;;;;;;1.90;1.10;;;;;;;;;;6217968;23;20367;-88
2023/10/28 03:56:10;;;;;;;1.53;0.90;;;;;;;;;;6219910;23;20383;-88
2023/10/28 03:58:36;;;;;;;1.73;1.63;;;;;;;;;;6218968;23;20765;-87
2023/10/28 04:01:02;;;;;;;3.53;0.80;;;;;;;;;;6219495;23;20379;-87
2023/10/28 04:03:28;;;;;;;1.70;1.13;;;;;;;;;;6218077;23;20391;-88
2023/10/28 04:05:54;;;;;;;2.70;1.23;;;;;;;;;;6218835;23;20509;-88
2023/10/28 04:08:20;;;;;;;3.13;1.00;;;;;;;;;;6218321;23;20390;-87
2023/10/28 04:10:46;;;;;;;6.33;1.67;;;;;;;;;;6218262;23;20386;-87
2023/10/28 04:13:15;;;;;;;1.37;1.17;;;;;;;;;;6216043;23;20755;-87
2023/10/28 04:15:41;;;;;;;2.43;1.10;;;;;;;;;;6216943;23;20413;-87
2023/10/28 04:18:07;;;;;;;2.40;0.83;;;;;;;;;;6216087;23;20839;-88
2023/10/28 04:20:34;;;;;;;1.23;0.93;;;;;;;;;;6219265;23;20395;-88
2023/10/28 04:23:00;;;;;;;2.77;1.10;;;;;;;;;;6217993;23;20385;-87
2023/10/28 04:25:27;;;;;;;1.83;1.00;;;;;;;;;;6218861;23;20423;-88
2023/10/28 04:27:53;;;;;;;1.27;0.83;;;;;;;;;;6217003;23;20852;-87
2023/10/28 04:30:19;;;;;;;2.70;0.90;;;;;;;;;;6220048;23;20379;-88
2023/10/28 04:32:45;;;;;;;4.17;1.00;;;;;;;;;;6217459;23;20778;-88
2023/10/28 04:35:11;;;;;;;1.17;1.03;;;;;;;;;;6218590;23;20389;-87
2023/10/28 04:37:37;;;;;;;1.97;1.30;;;;;;;;;;6217946;23;20387;-87
2023/10/28 04:40:05;;;;;;;4.10;1.20;;;;;;;;;;6220677;23;20390;-87
2023/10/28 04:42:31;;;;;;;1.07;0.80;;;;;;;;;;6219218;23;20391;-87
2023/10/28 04:44:57;;;;;;;2.20;0.97;;;;;;;;;;6217817;23;20817;-87
2023/10/28 04:47:24;;;;;;;1.70;0.93;;;;;;;;;;6218077;23;20375;-87
2023/10/28 04:49:50;;;;;;;2.67;1.00;;;;;;;;;;6221786;23;20786;-88
2023/10/28 04:52:16;;;;;;;1.27;1.13;;;;;;;;;;6218258;23;20384;-88
2023/10/28 04:54:42;;;;;;;1.13;1.03;;;;;;;;;;6218477;23;20387;-87
2023/10/28 04:57:09;;;;;;;4.10;0.90;;;;;;;;;;6217712;23;20364;-87
2023/10/28 04:59:35;;;;;;;3.43;1.03;;;;;;;;;;6223695;23;20383;-87
2023/10/28 05:02:01;;;;;;;1.03;0.80;;;;;;;;;;6216958;23;20375;-87
2023/10/28 05:04:27;;;;;;;1.33;0.83;;;;;;;;;;6215731;23;20422;-87
2023/10/28 05:06:53;;;;;;;0.70;0.63;;;;;;;;;;6219159;23;20441;-87
2023/10/28 05:09:20;;;;;;;2.70;1.10;;;;;;;;;;6217435;23;20391;-88
2023/10/28 05:11:46;;;;;;;1.47;0.70;;;;;;;;;;6218612;23;20469;-88
2023/10/28 05:14:14;;;;;;;0.67;0.67;;;;;;;;;;6218597;23;20466;-88
2023/10/28 05:16:40;;;;;;;0.80;0.73;;;;;;;;;;6219557;23;20846;-87
2023/10/28 05:19:08;;;;;;;2.20;0.80;;;;;;;;;;6217813;23;20393;-88
2023/10/28 05:21:34;;;;;;;2.50;0.97;;;;;;;;;;6217618;23;20395;-87
2023/10/28 05:24:00;;;;;;;1.30;1.20;;;;;;;;;;6217313;23;20419;-87
2023/10/28 05:26:26;;;;;;;1.00;0.80;;;;;;;;;;6218146;23;20422;-88
2023/10/28 05:28:54;;;;;;;2.90;1.10;;;;;;;;;;6217026;23;20399;-87
2023/10/28 05:31:20;;;;;;;1.10;0.97;;;;;;;;;;6222234;23;20386;-88
2023/10/28 05:33:46;;;;;;;2.10;0.93;;;;;;;;;;6218185;23;20379;-88
2023/10/28 05:36:12;;;;;;;1.90;0.80;;;;;;;;;;6219577;23;20745;-88
2023/10/28 05:38:37;;;;;;;1.20;0.73;;;;;;;;;;6216600;23;20398;-88
2023/10/28 05:41:03;;;;;;;3.10;0.93;;;;;;;;;;6218518;23;20371;-87
2023/10/28 05:43:30;;;;;;;3.80;1.37;;;;;;;;;;6217479;23;20458;-88
2023/10/28 05:45:56;;;;;;;3.97;1.00;;;;;;;;;;6220179;23;20546;-88
2023/10/28 05:48:22;;;;;;;1.33;0.80;;;;;;;;;;6216973;23;20799;-86
2023/10/28 05:50:48;;;;;;;1.77;1.17;;;;;;;;;;6216360;23;20372;-88
2023/10/28 05:53:14;;;;;;;4.30;0.87;;;;;;;;;;6217199;23;20758;-88
2023/10/28 05:55:40;;;;;;;1.83;0.80;;;;;;;;;;6243283;22;20391;-88
2023/10/28 05:58:06;;;;;;;2.30;0.90;;;;;;;;;;6217264;23;20382;-88
2023/10/28 06:00:33;;;;;;;4.20;0.97;;;;;;;;;;6222869;23;20374;-88
2023/10/28 06:02:59;;;;;;;1.20;0.90;;;;;;;;;;6216763;23;21026;-89
2023/10/28 06:05:25;;;;;;;2.60;1.20;;;;;;;;;;6217263;23;20434;-88
2023/10/28 06:07:51;;;;;;;2.40;1.00;;;;;;;;;;6221914;23;20703;-89
2023/10/28 06:10:17;;;;;;;1.10;0.80;;;;;;;;;;6218479;23;20382;-88
2023/10/28 06:12:43;;;;;;;1.53;1.10;;;;;;;;;;6219714;23;20398;-88
2023/10/28 06:15:11;;;;;;;1.03;0.90;;;;;;;;;;6220233;23;20387;-88
2023/10/28 06:17:37;;;;;;;3.40;0.90;;;;;;;;;;6222833;23;20391;-88
2023/10/28 06:20:05;;;;;;;2.70;1.27;;;;;;;;;;6219996;23;21094;-88
2023/10/28 06:22:32;;;;;;;1.47;1.20;;;;;;;;;;6221072;23;20379;-88
2023/10/28 06:25:01;;;;;;;3.37;0.70;;;;;;;;;;6220100;23;20427;-95
2023/10/28 06:27:27;;;;;;;2.70;0.90;;;;;;;;;;6219986;23;20403;-89
2023/10/28 06:29:53;;;;;;;3.10;1.00;;;;;;;;;;6219093;23;20414;-88
2023/10/28 06:32:19;;;;;;;1.57;0.90;;;;;;;;;;6224768;23;20403;-88
2023/10/28 06:34:45;;;;;;;0.83;0.70;;;;;;;;;;6218799;23;20413;-87
2023/10/28 06:37:11;;;;;;;0.90;0.80;;;;;;;;;;6220048;23;20418;-88
2023/10/28 06:39:37;;;;;;;2.30;0.80;;;;;;;;;;6217287;23;20382;-88
2023/10/28 06:42:04;;;;;;;5.10;1.27;;;;;;;;;;6219559;23;20394;-88
2023/10/28 06:44:32;;;;;;;2.40;1.00;;;;;;;;;;6218807;23;20422;-87
2023/10/28 06:46:58;;;;;;;0.80;0.70;;;;;;;;;;6221031;23;20418;-88
2023/10/28 06:49:24;;;;;;;2.30;0.80;;;;;;;;;;6218095;23;20386;-87
2023/10/28 06:51:50;;;;;;;1.90;0.90;;;;;;;;;;6220512;23;20386;-88
2023/10/28 06:54:18;;;;;;;1.00;0.87;;;;;;;;;;6217859;23;20371;-88
2023/10/28 06:56:44;;;;;;;1.63;1.53;;;;;;;;;;6221067;23;20379;-88
2023/10/28 06:59:10;;;;;;;0.90;0.80;;;;;;;;;;6219370;23;20390;-88
2023/10/28 07:01:36;;;;;;;1.50;1.40;;;;;;;;;;6219588;23;20371;-87
2023/10/28 07:04:02;;;;;;;4.10;1.23;;;;;;;;;;6218259;23;20430;-88
2023/10/28 07:06:31;;;;;;;2.30;0.70;;;;;;;;;;6222996;23;20425;-88
2023/10/28 07:08:57;;;;;;;1.47;1.07;;;;;;;;;;6221459;23;20411;-87
2023/10/28 07:11:24;;;;;;;1.87;1.30;;;;;;;;;;6218820;23;20411;-88
2023/10/28 07:13:50;;;;;;;2.60;1.13;;;;;;;;;;6218130;23;20434;-87
2023/10/28 07:16:17;;;;;;;1.03;0.80;;;;;;;;;;6220134;23;20407;-87
2023/10/28 07:18:43;;;;;;;2.00;1.03;;;;;;;;;;6221140;23;20370;-87
2023/10/28 07:21:09;;;;;;;2.90;2.03;;;;;;;;;;6218426;23;20387;-88
2023/10/28 07:23:35;;;;;;;0.93;0.77;;;;;;;;;;6219144;23;20506;-88
2023/10/28 07:26:02;;;;;;;3.67;1.57;;;;;;;;;;6217406;23;20415;-87
2023/10/28 07:28:35;;;;;;;1.63;0.50;;;;;;;;;;6221338;23;20442;-88
2023/10/28 07:31:01;;;;;;;2.87;2.60;;;;;;;;;;6220182;23;20411;-88
2023/10/28 07:33:28;;;;;;;4.97;1.70;;;;;;;;;;6218603;23;20430;-84
2023/10/28 07:35:53;;;;;;;2.30;1.53;;;;;;;;;;6217670;23;20383;-86
2023/10/28 07:38:20;;;;;;;2.13;1.10;;;;;;;;;;6221395;23;20790;-88
2023/10/28 07:40:46;;;;;;;2.00;1.23;;;;;;;;;;6220257;23;20371;-85
2023/10/28 07:43:12;;;;;;;3.23;1.17;;;;;;;;;;6222671;23;20760;-91
2023/10/28 07:45:39;;;;;;;1.57;1.30;;;;;;;;;;6223726;23;20929;-92
2023/10/28 07:48:09;;;;;;;3.30;0.83;;;;;;;;;;6226186;23;20415;-92
2023/10/28 07:50:35;;;;;;;2.13;0.90;;;;;;;;;;6225812;23;20406;-89
2023/10/28 07:53:01;;;;;;;2.27;1.20;;;;;;;;;;6223965;23;20376;-90
2023/10/28 07:55:27;;;;;;;2.87;1.63;;;;;;;;;;6223827;23;20390;-91
2023/10/28 07:57:54;;;;;;;1.30;1.17;;;;;;;;;;6224305;23;20387;-90
2023/10/28 08:00:20;;;;;;;2.17;1.10;;;;;;;;;;6223239;23;20387;-90
2023/10/28 08:02:46;;;;;;;1.50;0.90;;;;;;;;;;6224211;23;20852;-90
2023/10/28 08:05:13;;;;;;;1.63;1.03;;;;;;;;;;6223536;23;20407;-91
2023/10/28 08:07:39;;;;;;;3.83;1.03;;;;;;;;;;6224620;23;20367;-90
2023/10/28 08:10:05;;;;;;;2.30;0.60;;;;;;;;;;6221896;23;20395;-90
2023/10/28 08:12:31;;;;;;;2.10;0.80;;;;;;;;;;6225855;23;20398;-89
2023/10/28 08:15:00;;;;;;;1.30;0.90;;;;;;;;;;6219752;23;20397;-89
2023/10/28 08:17:26;;;;;;;1.70;0.83;;;;;;;;;;6224776;23;20390;-89
2023/10/28 08:19:52;;;;;;;2.90;0.80;;;;;;;;;;6223452;23;20859;-91
2023/10/28 08:22:18;;;;;;;5.20;1.27;;;;;;;;;;6223772;23;20459;-90
2023/10/28 08:24:44;;;;;;;1.80;0.80;;;;;;;;;;6224131;23;20453;-91
2023/10/28 08:27:10;;;;;;;2.10;0.80;;;;;;;;;;6224128;23;20897;-91
2023/10/28 08:29:37;;;;;;;1.43;0.90;;;;;;;;;;6175255;23;20391;-91
2023/10/28 08:32:03;;;;;;;2.67;1.03;;;;;;;;;;6176192;23;20383;-91
2023/10/28 08:34:29;;;;;;;3.37;1.07;;;;;;;;;;6175694;23;20382;-92
2023/10/28 08:36:55;;;;;;;0.97;0.87;;;;;;;;;;6174724;23;20387;-93
2023/10/28 08:39:23;;;;;;;2.77;0.80;;;;;;;;;;6174467;23;20462;-93
2023/10/28 08:41:51;;;;;;;1.23;0.83;;;;;;;;;;6177521;23;20380;-92
2023/10/28 08:44:27;;;;;;;1.67;0.90;;;;;;;;;;6203712;23;20391;-91
2023/10/28 08:46:53;;;;;;;2.07;0.90;;;;;;;;;;6176935;23;20366;-92
2023/10/28 08:49:19;;;;;;;1.77;1.67;;;;;;;;;;6175952;23;20376;-90
2023/10/28 08:51:47;;;;;;;4.40;1.13;;;;;;;;;;6172145;23;20399;-92
2023/10/28 08:54:13;;;;;;;5.07;1.00;;;;;;;;;;6174994;23;20398;-92
2023/10/28 08:56:41;;;;;;;3.40;1.03;;;;;;;;;;6173496;23;20386;-92
2023/10/28 08:59:07;;;;;;;1.97;1.37;;;;;;;;;;6172593;23;20360;-92
2023/10/28 09:01:34;;;;;;;4.40;0.97;;;;;;;;;;6199007;23;20371;-91
2023/10/28 09:04:06;;;;;;;1.87;1.00;;;;;;;;;;6174431;23;20391;-89
2023/10/28 09:06:32;;;;;;;2.53;0.97;;;;;;;;;;6174396;23;20423;-92
2023/10/28 09:09:04;;;;;;;1.10;0.70;;;;;;;;;;6172923;23;20383;-89
2023/10/28 09:11:30;;;;;;;2.23;0.90;;;;;;;;;;6173425;23;20394;-89
2023/10/28 09:13:56;;;;;;;3.33;1.03;;;;;;;;;;6173870;23;20395;-93
2023/10/28 09:16:23;;;;;;;1.20;0.90;;;;;;;;;;6174368;23;20446;-93
2023/10/28 09:18:50;;;;;;;2.50;1.00;;;;;;;;;;6202155;23;20411;-92
2023/10/28 09:21:16;;;;;;;2.93;0.87;;;;;;;;;;6198980;23;20370;-91
2023/10/28 09:23:42;;;;;;;1.97;0.90;;;;;;;;;;6175699;23;20384;-92
2023/10/28 09:26:08;;;;;;;3.43;1.00;;;;;;;;;;6178040;23;20425;-91
2023/10/28 09:28:35;;;;;;;3.13;0.87;;;;;;;;;;6194300;23;20488;-93
2023/10/28 09:31:01;;;;;;;3.57;0.90;;;;;;;;;;6225506;23;20438;-93
2023/10/28 09:33:27;;;;;;;2.30;1.00;;;;;;;;;;6225084;23;20379;-92
2023/10/28 09:35:56;;;;;;;1.50;1.00;;;;;;;;;;6223729;23;20367;-90
2023/10/28 09:38:23;;;;;;;1.23;0.80;;;;;;;;;;6224028;23;20387;-91
2023/10/28 09:40:49;;;;;;;1.63;0.70;;;;;;;;;;6224503;23;20387;-91
2023/10/28 09:43:15;;;;;;;1.20;0.80;;;;;;;;;;6225124;23;20379;-91
2023/10/28 09:45:41;;;;;;;2.37;1.10;;;;;;;;;;6222070;23;20435;-89
2023/10/28 09:48:12;;;;;;;6.00;0.87;;;;;;;;;;6221758;23;20372;-92
2023/10/28 09:50:40;;;;;;;4.37;1.43;;;;;;;;;;6224678;23;20355;-92
2023/10/28 09:53:06;;;;;;;1.20;0.60;;;;;;;;;;6225310;23;20394;-91
2023/10/28 09:55:35;;;;;;;3.90;1.03;;;;;;;;;;6222979;23;20410;-91
2023/10/28 09:58:04;;;;;;;3.30;1.00;;;;;;;;;;6222979;23;20415;-90
2023/10/28 10:00:30;;;;;;;1.00;0.70;;;;;;;;;;6245643;22;20897;-90
2023/10/28 10:03:12;;;;;;;1.30;1.00;;;;;;;;;;6219248;23;20363;-89
2023/10/28 10:05:41;;;;;;;5.60;1.00;;;;;;;;;;6244806;22;20493;-89
2023/10/28 10:08:16;;;;;;;1.20;0.90;;;;;;;;;;6219875;23;20463;-89
2023/10/28 10:10:46;;;;;;;1.30;0.80;;;;;;;;;;6220107;23;20485;-91
2023/10/28 10:13:12;;;;;;;2.43;0.77;;;;;;;;;;6220298;23;20558;-91
2023/10/28 10:15:38;;;;;;;1.30;0.70;;;;;;;;;;6219463;23;20367;-91
2023/10/28 10:18:10;;;;;;;1.70;0.90;;;;;;;;;;6219906;23;20398;-91
2023/10/28 10:20:36;;;;;;;3.27;0.97;;;;;;;;;;6222254;23;20379;-91
2023/10/28 10:23:03;;;;;;;2.63;0.90;;;;;;;;;;6221543;23;20367;-90
2023/10/28 10:25:41;;;;;;;2.60;0.80;;;;;;;;;;6219351;23;20526;-90
2023/10/28 10:28:15;;;;;;;4.60;1.03;;;;;;;;;;6224566;23;20413;-89
2023/10/28 10:30:41;;;;;;;2.83;1.07;;;;;;;;;;6222062;23;21032;-91
2023/10/28 10:33:07;;;;;;;4.70;1.20;;;;;;;;;;6219268;23;20383;-86
2023/10/28 10:35:33;;;;;;;1.80;0.80;;;;;;;;;;6215751;23;20371;-87
2023/10/28 10:38:00;;;;;;;1.33;1.23;;;;;;;;;;6217599;23;20866;-87
2023/10/28 10:40:26;;;;;;;1.10;0.80;;;;;;;;;;6215078;23;20375;-86
2023/10/28 10:42:55;;;;;;;1.30;0.90;;;;;;;;;;6217478;23;20375;-86
2023/10/28 10:45:22;;;;;;;5.10;1.33;;;;;;;;;;6218065;23;20526;-85
2023/10/28 10:47:49;;;;;;;3.37;1.10;;;;;;;;;;6216324;23;20375;-84
2023/10/28 10:50:16;;;;;;;3.80;1.30;;;;;;;;;;6218080;23;20391;-87
2023/10/28 10:52:42;;;;;;;2.37;1.17;;;;;;;;;;6242615;22;20383;-87
2023/10/28 10:55:08;;;;;;;2.13;1.03;;;;;;;;;;6218326;23;20923;-86
2023/10/28 10:57:36;;;;;;;2.60;1.10;;;;;;;;;;6224467;23;20370;-88
2023/10/28 11:00:11;;;;;;;4.13;1.00;;;;;;;;;;6217746;23;20387;-87
2023/10/28 11:02:38;;;;;;;3.80;0.83;;;;;;;;;;6220128;23;20375;-86
2023/10/28 11:05:04;;;;;;;3.67;1.27;;;;;;;;;;6217585;23;20426;-87
2023/10/28 11:07:30;;;;;;;2.20;1.00;;;;;;;;;;6241361;22;20382;-87
2023/10/28 11:09:56;;;;;;;3.40;1.30;;;;;;;;;;6217228;23;20379;-84
2023/10/28 11:12:24;;;;;;;2.90;2.07;;;;;;;;;;6216358;23;20371;-85
2023/10/28 11:14:50;;;;;;;1.77;0.90;;;;;;;;;;6247666;23;20428;-87
2023/10/28 11:17:16;;;;;;;5.00;1.13;;;;;;;;;;6224004;23;20478;-88
2023/10/28 11:19:48;;;;;;;3.00;1.20;;;;;;;;;;6176402;23;20411;-84
2023/10/28 11:22:15;;;;;;;3.00;1.13;;;;;;;;;;6137057;23;20383;-87
2023/10/28 11:24:41;;;;;;;5.27;1.83;;;;;;;;;;6165811;23;20452;-87
2023/10/28 11:27:07;;;;;;;5.83;1.20;;;;;;;;;;6137790;23;20781;-87
2023/10/28 11:29:37;;;;;;;8.33;1.90;;;;;;;;;;6143789;23;20403;-89
2023/10/28 11:32:07;;;;;;;4.17;1.27;;;;;;;;;;6137572;23;20372;-87
2023/10/28 11:34:38;;;;;;;4.50;1.10;;;;;;;;;;6138271;23;20912;-87
2023/10/28 11:37:04;;;;;;;2.00;0.90;;;;;;;;;;6139182;23;20382;-87
2023/10/28 11:39:33;;;;;;;4.07;1.30;;;;;;;;;;6140768;23;20372;-85
2023/10/28 11:42:08;;;;;;;1.73;0.80;;;;;;;;;;6140133;23;20409;-88
2023/10/28 11:44:34;;;;;;;2.80;1.53;;;;;;;;;;6136694;23;21291;-87
2023/10/28 11:47:01;;;;;;;7.17;1.33;;;;;;;;;;6136973;23;20387;-87
2023/10/28 11:49:27;;;;;;;5.07;0.90;;;;;;;;;;6136340;23;20391;-87
2023/10/28 11:51:53;;;;;;;1.20;0.80;;;;;;;;;;6195195;23;20441;-88
2023/10/28 11:54:19;;;;;;;2.63;0.97;;;;;;;;;;6218816;23;20387;-85
2023/10/28 11:56:45;;;;;;;2.20;1.03;;;;;;;;;;6216880;23;20367;-85
2023/10/28 11:59:11;;;;;;;2.10;1.20;;;;;;;;;;6216291;23;20390;-86
2023/10/28 12:01:37;;;;;;;4.73;1.13;;;;;;;;;;6217271;23;20382;-88
2023/10/28 12:04:03;;;;;;;4.03;1.00;;;;;;;;;;6216528;23;20367;-86
2023/10/28 12:06:33;;;;;;;3.00;0.97;;;;;;;;;;6215206;23;20430;-86
2023/10/28 12:09:09;;;;;;;3.33;1.40;;;;;;;;;;6215563;23;20414;-85
2023/10/28 12:11:37;;;;;;;3.50;2.37;;;;;;;;;;6192871;23;20909;-85
2023/10/28 12:14:04;;;;;;;1.17;0.93;;;;;;;;;;6217780;23;20440;-86
2023/10/28 12:16:33;;;;;;;2.70;1.70;;;;;;;;;;6193124;23;20465;-86
2023/10/28 12:18:59;;;;;;;3.63;1.53;;;;;;;;;;6219350;23;20846;-86
2023/10/28 12:21:29;;;;;;;3.53;1.37;;;;;;;;;;6220951;23;20375;-86
2023/10/28 12:23:55;;;;;;;6.87;1.30;;;;;;;;;;6243195;22;20436;-86
2023/10/28 12:26:21;;;;;;;1.90;1.17;;;;;;;;;;6218226;23;20886;-86
2023/10/28 12:28:48;;;;;;;1.90;1.03;;;;;;;;;;6216408;23;20451;-85
2023/10/28 12:31:16;;;;;;;3.73;1.50;;;;;;;;;;6218295;23;20382;-86
2023/10/28 12:33:42;;;;;;;6.70;1.20;;;;;;;;;;6218245;23;20375;-86
2023/10/28 12:36:10;;;;;;;6.43;1.50;;;;;;;;;;6223363;23;20394;-88
2023/10/28 12:38:36;;;;;;;3.10;1.43;;;;;;;;;;6220541;23;20379;-88
2023/10/28 12:41:02;;;;;;;5.23;1.20;;;;;;;;;;6219749;23;20402;-88
2023/10/28 12:43:29;;;;;;;4.50;1.13;;;;;;;;;;6219226;23;20395;-93
2023/10/28 12:45:56;;;;;;;3.60;1.87;;;;;;;;;;6222843;23;20446;-88
2023/10/28 12:48:23;;;;;;;6.20;1.60;;;;;;;;;;6216997;23;20397;-88
2023/10/28 12:50:49;;;;;;;2.50;1.10;;;;;;;;;;6217730;23;20383;-88
2023/10/28 12:53:15;;;;;;;3.80;1.40;;;;;;;;;;6219398;23;20462;-87
2023/10/28 12:55:41;;;;;;;2.40;1.30;;;;;;;;;;6218335;23;20405;-89
2023/10/28 12:58:07;;;;;;;3.80;1.00;;;;;;;;;;6217243;23;20712;-89
2023/10/28 13:00:34;;;;;;;4.43;1.20;;;;;;;;;;6219862;23;20375;-88
2023/10/28 13:03:00;;;;;;;2.50;1.50;;;;;;;;;;6193156;23;20395;-88
2023/10/28 13:05:27;;;;;;;4.83;1.60;;;;;;;;;;6192355;23;20426;-89
2023/10/28 13:07:53;;;;;;;3.57;1.00;;;;;;;;;;6194342;23;20389;-89
2023/10/28 13:10:19;;;;;;;1.80;1.70;;;;;;;;;;6193526;23;20466;-89
2023/10/28 13:12:45;;;;;;;10.43;2.13;;;;;;;;;;6196353;23;20367;-90
2023/10/28 13:15:11;;;;;;;4.20;1.57;;;;;;;;;;6191740;23;20922;-89
2023/10/28 13:17:39;;;;;;;9.57;1.73;;;;;;;;;;6191243;23;20387;-90
2023/10/28 13:20:08;;;;;;;3.63;1.83;;;;;;;;;;6193871;23;20379;-89
2023/10/28 13:22:34;;;;;;;1.87;1.30;;;;;;;;;;6194385;23;20383;-89
2023/10/28 13:25:00;;;;;;;4.00;1.40;;;;;;;;;;6191992;23;21155;-89
2023/10/28 13:27:26;;;;;;;3.20;1.40;;;;;;;;;;6192255;23;20759;-88
2023/10/28 13:29:52;;;;;;;2.10;1.00;;;;;;;;;;6189656;23;20387;-89
2023/10/28 13:32:18;;;;;;;3.70;1.30;;;;;;;;;;6194062;23;20376;-89
2023/10/28 13:34:45;;;;;;;2.77;1.20;;;;;;;;;;6194382;23;20463;-89
2023/10/28 13:37:11;;;;;;;4.00;1.60;;;;;;;;;;6218462;23;20393;-90
2023/10/28 13:39:37;;;;;;;4.87;1.57;;;;;;;;;;6219625;23;20386;-87
2023/10/28 13:42:04;;;;;;;5.03;1.60;;;;;;;;;;6221344;23;20758;-87
2023/10/28 13:44:30;;;;;;;3.07;1.97;;;;;;;;;;6217826;23;20382;-89
2023/10/28 13:46:56;;;;;;;3.43;1.40;;;;;;;;;;6219436;23;20411;-89
2023/10/28 13:49:24;;;;;;;4.90;1.60;;;;;;;;;;6193629;23;20409;-88
2023/10/28 13:51:50;;;;;;;2.37;1.30;;;;;;;;;;6193788;23;20375;-88
2023/10/28 13:54:17;;;;;;;1.40;1.10;;;;;;;;;;6218870;23;20402;-88
2023/10/28 13:56:43;;;;;;;1.90;1.33;;;;;;;;;;6194422;23;20968;-89
2023/10/28 13:59:10;;;;;;;2.23;1.50;;;;;;;;;;6194915;23;20371;-89
2023/10/28 14:01:36;;;;;;;1.10;1.00;;;;;;;;;;6220358;23;20373;-89
2023/10/28 14:04:03;;;;;;;2.43;1.63;;;;;;;;;;6192958;23;20379;-89
2023/10/28 14:06:30;;;;;;;3.37;1.23;;;;;;;;;;6196237;23;20454;-88
2023/10/28 14:08:56;;;;;;;4.93;1.67;;;;;;;;;;6192530;23;20883;-89
2023/10/28 14:11:22;;;;;;;1.13;1.00;;;;;;;;;;6195102;23;20428;-89
2023/10/28 14:13:48;;;;;;;3.63;1.37;;;;;;;;;;6194242;23;20453;-88
2023/10/28 14:16:15;;;;;;;1.77;1.20;;;;;;;;;;6199118;23;20376;-88
2023/10/28 14:19:01;;;;;;;5.30;1.97;;;;;;;;;;6193981;23;20388;-88
2023/10/28 14:21:27;;;;;;;2.90;1.77;;;;;;;;;;6200140;22;20387;-87
2023/10/28 14:23:54;;;;;;;6.07;2.33;;;;;;;;;;6194788;23;20379;-88
2023/10/28 14:26:20;;;;;;;3.20;1.40;;;;;;;;;;6194672;23;20422;-88
2023/10/28 14:28:46;;;;;;;1.73;1.40;;;;;;;;;;6194168;23;20394;-88
2023/10/28 14:31:12;;;;;;;1.40;0.83;;;;;;;;;;6197872;23;20367;-88
2023/10/28 14:33:38;;;;;;;3.37;1.33;;;;;;;;;;6195128;23;20764;-88
2023/10/28 14:36:08;;;;;;;4.00;1.10;;;;;;;;;;6193577;23;20633;-87
2023/10/28 14:38:34;;;;;;;4.40;1.40;;;;;;;;;;6194883;23;20367;-88
2023/10/28 14:41:00;;;;;;;2.77;1.30;;;;;;;;;;6195888;23;20390;-87